sensor_id;sensor_type;location;lat;lon;timestamp;pressure;altitude;pressure_sealevel;temperature;humidity
66703;BME280;60933;46.398;-63.798;2024-01-30T00:01:12;101568.72;;;-9.56;93.50
66703;BME280;60933;46.398;-63.798;2024-01-30T00:03:40;101573.06;;;-9.53;94.55
66703;BME280;60933;46.398;-63.798;2024-01-30T00:06:09;101576.31;;;-9.54;92.39
66703;BME280;60933;46.398;-63.798;2024-01-30T00:08:37;101565.00;;;-9.61;94.23
66703;BME280;60933;46.398;-63.798;2024-01-30T00:11:05;101579.03;;;-9.51;95.17
66703;BME280;60933;46.398;-63.798;2024-01-30T00:13:35;101588.06;;;-9.53;96.31
66703;BME280;60933;46.398;-63.798;2024-01-30T00:16:03;101585.56;;;-9.53;96.68
66703;BME280;60933;46.398;-63.798;2024-01-30T00:18:34;101588.06;;;-9.53;97.43
66703;BME280;60933;46.398;-63.798;2024-01-30T00:21:02;101591.22;;;-9.56;96.95
66703;BME280;60933;46.398;-63.798;2024-01-30T00:23:31;101592.84;;;-9.56;96.28
66703;BME280;60933;46.398;-63.798;2024-01-30T00:25:59;101596.09;;;-9.57;94.26
66703;BME280;60933;46.398;-63.798;2024-01-30T00:28:27;101595.13;;;-9.59;94.14
66703;BME280;60933;46.398;-63.798;2024-01-30T00:30:55;101608.47;;;-9.59;94.41
66703;BME280;60933;46.398;-63.798;2024-01-30T00:33:24;101605.88;;;-9.60;93.97
66703;BME280;60933;46.398;-63.798;2024-01-30T00:35:53;101591.41;;;-9.64;93.17
66703;BME280;60933;46.398;-63.798;2024-01-30T00:38:21;101602.22;;;-9.65;93.14
66703;BME280;60933;46.398;-63.798;2024-01-30T00:40:49;101610.66;;;-9.63;93.98
66703;BME280;60933;46.398;-63.798;2024-01-30T00:43:18;101604.81;;;-9.64;94.13
66703;BME280;60933;46.398;-63.798;2024-01-30T00:45:46;101604.81;;;-9.64;94.22
66703;BME280;60933;46.398;-63.798;2024-01-30T00:48:14;101596.41;;;-9.64;93.08
66703;BME280;60933;46.398;-63.798;2024-01-30T00:50:43;101595.00;;;-9.73;92.64
66703;BME280;60933;46.398;-63.798;2024-01-30T00:53:11;101621.09;;;-9.69;92.61
66703;BME280;60933;46.398;-63.798;2024-01-30T00:55:40;101611.09;;;-9.69;91.60
66703;BME280;60933;46.398;-63.798;2024-01-30T00:58:09;101616.75;;;-9.72;91.46
66703;BME280;60933;46.398;-63.798;2024-01-30T01:00:38;101614.78;;;-9.76;90.11
66703;BME280;60933;46.398;-63.798;2024-01-30T01:03:07;101629.13;;;-9.73;89.66
66703;BME280;60933;46.398;-63.798;2024-01-30T01:05:36;101617.19;;;-9.77;89.51
66703;BME280;60933;46.398;-63.798;2024-01-30T01:08:05;101636.41;;;-9.76;90.69
66703;BME280;60933;46.398;-63.798;2024-01-30T01:10:33;101641.28;;;-9.78;92.24
66703;BME280;60933;46.398;-63.798;2024-01-30T01:13:01;101638.78;;;-9.78;92.86
66703;BME280;60933;46.398;-63.798;2024-01-30T01:15:29;101633.78;;;-9.78;91.62
66703;BME280;60933;46.398;-63.798;2024-01-30T01:17:57;101623.47;;;-9.82;92.35
66703;BME280;60933;46.398;-63.798;2024-01-30T01:20:25;101625.53;;;-9.77;93.02
66703;BME280;60933;46.398;-63.798;2024-01-30T01:22:56;101623.03;;;-9.77;92.60
66703;BME280;60933;46.398;-63.798;2024-01-30T01:25:24;101622.81;;;-9.80;92.37
66703;BME280;60933;46.398;-63.798;2024-01-30T01:27:53;101641.28;;;-9.78;93.92
66703;BME280;60933;46.398;-63.798;2024-01-30T01:30:21;101631.31;;;-9.78;93.90
66703;BME280;60933;46.398;-63.798;2024-01-30T01:32:50;101644.78;;;-9.76;93.27
66703;BME280;60933;46.398;-63.798;2024-01-30T01:35:22;101648.03;;;-9.77;93.21
66703;BME280;60933;46.398;-63.798;2024-01-30T01:37:53;101636.19;;;-9.79;92.20
66703;BME280;60933;46.398;-63.798;2024-01-30T01:40:27;101638.59;;;-9.81;90.88
66703;BME280;60933;46.398;-63.798;2024-01-30T01:42:55;101666.19;;;-9.79;92.38
66703;BME280;60933;46.398;-63.798;2024-01-30T01:45:24;101649.53;;;-9.79;93.76
66703;BME280;60933;46.398;-63.798;2024-01-30T01:47:52;101651.94;;;-9.80;93.52
66703;BME280;60933;46.398;-63.798;2024-01-30T01:50:21;101651.94;;;-9.80;92.64
66703;BME280;60933;46.398;-63.798;2024-01-30T01:52:51;101647.69;;;-9.81;95.13
66703;BME280;60933;46.398;-63.798;2024-01-30T01:55:21;101651.28;;;-9.78;96.96
66703;BME280;60933;46.398;-63.798;2024-01-30T01:57:53;101653.69;;;-9.79;96.48
66703;BME280;60933;46.398;-63.798;2024-01-30T02:00:22;101665.19;;;-9.81;94.95
66703;BME280;60933;46.398;-63.798;2024-01-30T02:02:51;101668.56;;;-9.81;94.30
66703;BME280;60933;46.398;-63.798;2024-01-30T02:05:22;101672.59;;;-9.83;92.59
66703;BME280;60933;46.398;-63.798;2024-01-30T02:07:50;101669.09;;;-9.85;92.36
66703;BME280;60933;46.398;-63.798;2024-01-30T02:10:19;101668.34;;;-9.84;93.11
66703;BME280;60933;46.398;-63.798;2024-01-30T02:12:48;101679.09;;;-9.85;93.27
66703;BME280;60933;46.398;-63.798;2024-01-30T02:15:17;101660.59;;;-9.87;94.12
66703;BME280;60933;46.398;-63.798;2024-01-30T02:17:45;101675.59;;;-9.87;93.86
66703;BME280;60933;46.398;-63.798;2024-01-30T02:20:13;101689.84;;;-9.86;92.36
66703;BME280;60933;46.398;-63.798;2024-01-30T02:22:43;101682.88;;;-9.90;91.33
66703;BME280;60933;46.398;-63.798;2024-01-30T02:25:11;101675.41;;;-9.90;91.19
66703;BME280;60933;46.398;-63.798;2024-01-30T02:27:39;101676.66;;;-9.95;91.66
66703;BME280;60933;46.398;-63.798;2024-01-30T02:30:08;101695.38;;;-9.90;91.90
66703;BME280;60933;46.398;-63.798;2024-01-30T02:32:36;101677.91;;;-9.90;92.46
66703;BME280;60933;46.398;-63.798;2024-01-30T02:35:05;101671.16;;;-9.91;94.16
66703;BME280;60933;46.398;-63.798;2024-01-30T02:37:36;101681.81;;;-9.94;93.74
66703;BME280;60933;46.398;-63.798;2024-01-30T02:40:05;101678.41;;;-9.94;92.53
66703;BME280;60933;46.398;-63.798;2024-01-30T02:42:35;101689.16;;;-9.95;90.96
66703;BME280;60933;46.398;-63.798;2024-01-30T02:45:03;101689.94;;;-9.96;88.58
66703;BME280;60933;46.398;-63.798;2024-01-30T02:47:31;101694.94;;;-9.96;88.50
66703;BME280;60933;46.398;-63.798;2024-01-30T02:49:59;101698.19;;;-9.97;90.66
66703;BME280;60933;46.398;-63.798;2024-01-30T02:52:27;101688.94;;;-9.98;90.57
66703;BME280;60933;46.398;-63.798;2024-01-30T02:54:56;101707.63;;;-9.93;90.96
66703;BME280;60933;46.398;-63.798;2024-01-30T02:57:24;101699.63;;;-9.89;91.56
66703;BME280;60933;46.398;-63.798;2024-01-30T02:59:52;101678.00;;;-9.89;92.99
66703;BME280;60933;46.398;-63.798;2024-01-30T03:02:20;101690.25;;;-9.92;93.24
66703;BME280;60933;46.398;-63.798;2024-01-30T03:04:48;101679.94;;;-9.96;94.78
66703;BME280;60933;46.398;-63.798;2024-01-30T03:07:16;101705.59;;;-9.87;96.61
66703;BME280;60933;46.398;-63.798;2024-01-30T03:09:44;101714.06;;;-9.85;94.25
66703;BME280;60933;46.398;-63.798;2024-01-30T03:12:12;101709.72;;;-9.88;92.62
66703;BME280;60933;46.398;-63.798;2024-01-30T03:14:40;101726.66;;;-9.83;93.48
66703;BME280;60933;46.398;-63.798;2024-01-30T03:17:08;101722.56;;;-9.83;94.61
66703;BME280;60933;46.398;-63.798;2024-01-30T03:19:36;101724.31;;;-9.82;95.24
66703;BME280;60933;46.398;-63.798;2024-01-30T03:22:04;101722.56;;;-9.83;95.79
66703;BME280;60933;46.398;-63.798;2024-01-30T03:24:32;101723.31;;;-9.84;93.56
66703;BME280;60933;46.398;-63.798;2024-01-30T03:27:00;101715.81;;;-9.84;94.03
66703;BME280;60933;46.398;-63.798;2024-01-30T03:29:28;101724.91;;;-9.84;94.46
66703;BME280;60933;46.398;-63.798;2024-01-30T03:31:56;101734.16;;;-9.83;93.70
66703;BME280;60933;46.398;-63.798;2024-01-30T03:34:24;101740.81;;;-9.84;91.00
66703;BME280;60933;46.398;-63.798;2024-01-30T03:36:52;101753.19;;;-9.86;91.75
66703;BME280;60933;46.398;-63.798;2024-01-30T03:39:20;101758.28;;;-9.84;92.77
66703;BME280;60933;46.398;-63.798;2024-01-30T03:41:48;101764.28;;;-9.82;93.57
66703;BME280;60933;46.398;-63.798;2024-01-30T03:44:16;101755.22;;;-9.92;94.45
66703;BME280;60933;46.398;-63.798;2024-01-30T03:46:44;101767.75;;;-9.80;93.59
66703;BME280;60933;46.398;-63.798;2024-01-30T03:49:12;101772.75;;;-9.80;93.06
66703;BME280;60933;46.398;-63.798;2024-01-30T03:51:40;101771.13;;;-9.79;92.37
66703;BME280;60933;46.398;-63.798;2024-01-30T03:54:08;101772.97;;;-9.77;93.53
66703;BME280;60933;46.398;-63.798;2024-01-30T03:56:37;101773.97;;;-9.75;93.58
66703;BME280;60933;46.398;-63.798;2024-01-30T03:59:05;101782.97;;;-9.77;94.55
66703;BME280;60933;46.398;-63.798;2024-01-30T04:01:33;101783.22;;;-9.74;95.89
66703;BME280;60933;46.398;-63.798;2024-01-30T04:04:01;101777.31;;;-9.74;96.38
66703;BME280;60933;46.398;-63.798;2024-01-30T04:06:29;101792.44;;;-9.73;94.83
66703;BME280;60933;46.398;-63.798;2024-01-30T04:08:57;101788.84;;;-9.76;91.61
66703;BME280;60933;46.398;-63.798;2024-01-30T04:11:24;101791.69;;;-9.72;90.70
66703;BME280;60933;46.398;-63.798;2024-01-30T04:13:52;101793.41;;;-9.71;90.71
66703;BME280;60933;46.398;-63.798;2024-01-30T04:16:21;101792.66;;;-9.70;91.06
66703;BME280;60933;46.398;-63.798;2024-01-30T04:18:52;101793.66;;;-9.67;93.74
66703;BME280;60933;46.398;-63.798;2024-01-30T04:21:21;101796.03;;;-9.69;95.09
66703;BME280;60933;46.398;-63.798;2024-01-30T04:23:51;101798.88;;;-9.64;96.74
66703;BME280;60933;46.398;-63.798;2024-01-30T04:26:19;101800.41;;;-9.66;97.08
66703;BME280;60933;46.398;-63.798;2024-01-30T04:28:47;101798.75;;;-9.66;96.60
66703;BME280;60933;46.398;-63.798;2024-01-30T04:31:15;101808.75;;;-9.66;95.17
66703;BME280;60933;46.398;-63.798;2024-01-30T04:33:43;101799.31;;;-9.70;93.97
66703;BME280;60933;46.398;-63.798;2024-01-30T04:36:14;101813.66;;;-9.67;93.79
66703;BME280;60933;46.398;-63.798;2024-01-30T04:38:42;101816.91;;;-9.68;94.58
66703;BME280;60933;46.398;-63.798;2024-01-30T04:41:10;101813.66;;;-9.67;95.29
66703;BME280;60933;46.398;-63.798;2024-01-30T04:43:38;101813.00;;;-9.65;97.29
66703;BME280;60933;46.398;-63.798;2024-01-30T04:46:06;101821.50;;;-9.63;98.33
66703;BME280;60933;46.398;-63.798;2024-01-30T04:48:34;101812.16;;;-9.65;98.75
66703;BME280;60933;46.398;-63.798;2024-01-30T04:51:02;101822.47;;;-9.61;98.90
66703;BME280;60933;46.398;-63.798;2024-01-30T04:53:31;101830.84;;;-9.60;98.08
66703;BME280;60933;46.398;-63.798;2024-01-30T04:55:59;101818.25;;;-9.62;98.20
66703;BME280;60933;46.398;-63.798;2024-01-30T04:58:27;101823.34;;;-9.60;98.40
66703;BME280;60933;46.398;-63.798;2024-01-30T05:00:55;101832.59;;;-9.59;99.51
66703;BME280;60933;46.398;-63.798;2024-01-30T05:03:25;101833.25;;;-9.62;100.00
66703;BME280;60933;46.398;-63.798;2024-01-30T05:05:53;101835.59;;;-9.63;100.00
66703;BME280;60933;46.398;-63.798;2024-01-30T05:08:21;101837.47;;;-9.61;100.00
66703;BME280;60933;46.398;-63.798;2024-01-30T05:10:49;101841.59;;;-9.61;99.97
66703;BME280;60933;46.398;-63.798;2024-01-30T05:13:17;101841.50;;;-9.63;100.00
66703;BME280;60933;46.398;-63.798;2024-01-30T05:15:45;101841.59;;;-9.61;99.89
66703;BME280;60933;46.398;-63.798;2024-01-30T05:18:13;101837.25;;;-9.64;100.00
66703;BME280;60933;46.398;-63.798;2024-01-30T05:20:41;101842.59;;;-9.59;99.66
66703;BME280;60933;46.398;-63.798;2024-01-30T05:23:09;101851.06;;;-9.57;100.00
66703;BME280;60933;46.398;-63.798;2024-01-30T05:25:37;101852.16;;;-9.54;100.00
66703;BME280;60933;46.398;-63.798;2024-01-30T05:28:05;101846.53;;;-9.51;100.00
66703;BME280;60933;46.398;-63.798;2024-01-30T05:30:33;101845.00;;;-9.49;100.00
66703;BME280;60933;46.398;-63.798;2024-01-30T05:33:01;101846.00;;;-9.47;100.00
66703;BME280;60933;46.398;-63.798;2024-01-30T05:35:30;101852.63;;;-9.47;100.00
66703;BME280;60933;46.398;-63.798;2024-01-30T05:37:58;101848.25;;;-9.50;99.11
66703;BME280;60933;46.398;-63.798;2024-01-30T05:40:26;101863.41;;;-9.48;98.01
66703;BME280;60933;46.398;-63.798;2024-01-30T05:42:55;101862.50;;;-9.49;96.97
66703;BME280;60933;46.398;-63.798;2024-01-30T05:45:23;101862.41;;;-9.50;95.40
66703;BME280;60933;46.398;-63.798;2024-01-30T05:47:51;101861.66;;;-9.49;93.77
66703;BME280;60933;46.398;-63.798;2024-01-30T05:50:19;101858.25;;;-9.50;93.94
66703;BME280;60933;46.398;-63.798;2024-01-30T05:52:47;101846.75;;;-9.48;93.56
66703;BME280;60933;46.398;-63.798;2024-01-30T05:55:15;101865.25;;;-9.46;95.28
66703;BME280;60933;46.398;-63.798;2024-01-30T05:57:43;101868.75;;;-9.44;95.20
66703;BME280;60933;46.398;-63.798;2024-01-30T06:00:11;101871.25;;;-9.44;95.50
66703;BME280;60933;46.398;-63.798;2024-01-30T06:02:39;101874.50;;;-9.45;94.78
66703;BME280;60933;46.398;-63.798;2024-01-30T06:05:08;101881.44;;;-9.41;95.18
66703;BME280;60933;46.398;-63.798;2024-01-30T06:07:36;101867.19;;;-9.42;96.52
66703;BME280;60933;46.398;-63.798;2024-01-30T06:10:05;101865.59;;;-9.41;97.99
66703;BME280;60933;46.398;-63.798;2024-01-30T06:12:33;101868.09;;;-9.41;98.67
66703;BME280;60933;46.398;-63.798;2024-01-30T06:15:01;101859.84;;;-9.40;99.72
66703;BME280;60933;46.398;-63.798;2024-01-30T06:17:29;101870.69;;;-9.40;100.00
66703;BME280;60933;46.398;-63.798;2024-01-30T06:19:57;101878.94;;;-9.41;100.00
66703;BME280;60933;46.398;-63.798;2024-01-30T06:22:25;101881.59;;;-9.39;100.00
66703;BME280;60933;46.398;-63.798;2024-01-30T06:24:53;101884.94;;;-9.39;100.00
66703;BME280;60933;46.398;-63.798;2024-01-30T06:27:21;101884.41;;;-9.34;100.00
66703;BME280;60933;46.398;-63.798;2024-01-30T06:29:49;101888.66;;;-9.33;99.74
66703;BME280;60933;46.398;-63.798;2024-01-30T06:32:17;101888.66;;;-9.33;100.00
66703;BME280;60933;46.398;-63.798;2024-01-30T06:34:45;101891.28;;;-9.32;99.78
66703;BME280;60933;46.398;-63.798;2024-01-30T06:37:13;101902.91;;;-9.32;99.48
66703;BME280;60933;46.398;-63.798;2024-01-30T06:39:41;101892.91;;;-9.32;99.70
66703;BME280;60933;46.398;-63.798;2024-01-30T06:42:09;101883.66;;;-9.33;100.00
66703;BME280;60933;46.398;-63.798;2024-01-30T06:44:38;101895.28;;;-9.34;100.00
66703;BME280;60933;46.398;-63.798;2024-01-30T06:47:06;101899.53;;;-9.33;100.00
66703;BME280;60933;46.398;-63.798;2024-01-30T06:49:34;101909.66;;;-9.31;100.00
66703;BME280;60933;46.398;-63.798;2024-01-30T06:52:04;101901.81;;;-9.36;100.00
66703;BME280;60933;46.398;-63.798;2024-01-30T06:54:34;101912.91;;;-9.32;100.00
66703;BME280;60933;46.398;-63.798;2024-01-30T06:57:02;101910.31;;;-9.34;100.00
66703;BME280;60933;46.398;-63.798;2024-01-30T06:59:31;101900.50;;;-9.31;100.00
66703;BME280;60933;46.398;-63.798;2024-01-30T07:01:59;101905.50;;;-9.31;100.00
66703;BME280;60933;46.398;-63.798;2024-01-30T07:04:27;101907.03;;;-9.33;96.64
66703;BME280;60933;46.398;-63.798;2024-01-30T07:06:55;101906.16;;;-9.33;94.87
66703;BME280;60933;46.398;-63.798;2024-01-30T07:09:24;101921.41;;;-9.30;94.55
66703;BME280;60933;46.398;-63.798;2024-01-30T07:11:53;101915.66;;;-9.29;94.58
66703;BME280;60933;46.398;-63.798;2024-01-30T07:14:22;101925.00;;;-9.27;95.97
66703;BME280;60933;46.398;-63.798;2024-01-30T07:16:50;101933.38;;;-9.26;98.01
66703;BME280;60933;46.398;-63.798;2024-01-30T07:19:18;101939.25;;;-9.26;99.48
66703;BME280;60933;46.398;-63.798;2024-01-30T07:21:46;101943.25;;;-9.28;98.79
66703;BME280;60933;46.398;-63.798;2024-01-30T07:24:14;101925.06;;;-9.37;97.60
66703;BME280;60933;46.398;-63.798;2024-01-30T07:26:42;101957.16;;;-9.31;96.67
66703;BME280;60933;46.398;-63.798;2024-01-30T07:29:10;101941.06;;;-9.35;95.37
66703;BME280;60933;46.398;-63.798;2024-01-30T07:31:38;101947.72;;;-9.35;95.49
66703;BME280;60933;46.398;-63.798;2024-01-30T07:34:08;101950.31;;;-9.34;96.27
66703;BME280;60933;46.398;-63.798;2024-01-30T07:36:36;101952.91;;;-9.32;96.36
66703;BME280;60933;46.398;-63.798;2024-01-30T07:39:05;101964.44;;;-9.34;96.61
66703;BME280;60933;46.398;-63.798;2024-01-30T07:41:33;101963.91;;;-9.30;96.97
66703;BME280;60933;46.398;-63.798;2024-01-30T07:44:02;101958.16;;;-9.29;97.16
66703;BME280;60933;46.398;-63.798;2024-01-30T07:46:30;101969.78;;;-9.30;96.41
66703;BME280;60933;46.398;-63.798;2024-01-30T07:48:58;101960.53;;;-9.31;95.67
66703;BME280;60933;46.398;-63.798;2024-01-30T07:51:27;101961.31;;;-9.32;94.17
66703;BME280;60933;46.398;-63.798;2024-01-30T07:53:56;101982.28;;;-9.30;94.34
66703;BME280;60933;46.398;-63.798;2024-01-30T07:56:26;101977.94;;;-9.32;94.73
66703;BME280;60933;46.398;-63.798;2024-01-30T07:58:54;101977.94;;;-9.32;95.04
66703;BME280;60933;46.398;-63.798;2024-01-30T08:01:22;101989.56;;;-9.33;95.34
66703;BME280;60933;46.398;-63.798;2024-01-30T08:03:50;101987.94;;;-9.32;95.35
66703;BME280;60933;46.398;-63.798;2024-01-30T08:06:18;101985.22;;;-9.35;95.93
66703;BME280;60933;46.398;-63.798;2024-01-30T08:08:47;101995.31;;;-9.34;93.97
66703;BME280;60933;46.398;-63.798;2024-01-30T08:11:15;101997.19;;;-9.31;91.92
66703;BME280;60933;46.398;-63.798;2024-01-30T08:13:43;101996.94;;;-9.34;92.73
66703;BME280;60933;46.398;-63.798;2024-01-30T08:16:11;101995.53;;;-9.31;93.76
66703;BME280;60933;46.398;-63.798;2024-01-30T08:18:41;102009.78;;;-9.30;95.56
66703;BME280;60933;46.398;-63.798;2024-01-30T08:21:09;102016.56;;;-9.29;96.98
66703;BME280;60933;46.398;-63.798;2024-01-30T08:23:39;102004.69;;;-9.31;96.77
66703;BME280;60933;46.398;-63.798;2024-01-30T08:26:07;102021.69;;;-9.27;96.04
66703;BME280;60933;46.398;-63.798;2024-01-30T08:28:35;102032.31;;;-9.30;96.48
66703;BME280;60933;46.398;-63.798;2024-01-30T08:31:03;102024.06;;;-9.29;97.04
66703;BME280;60933;46.398;-63.798;2024-01-30T08:33:31;102033.31;;;-9.28;98.27
66703;BME280;60933;46.398;-63.798;2024-01-30T08:35:59;102034.06;;;-9.29;97.57
66703;BME280;60933;46.398;-63.798;2024-01-30T08:38:27;102027.56;;;-9.27;95.75
66703;BME280;60933;46.398;-63.798;2024-01-30T08:40:56;102037.66;;;-9.25;94.85
66703;BME280;60933;46.398;-63.798;2024-01-30T08:43:24;102046.69;;;-9.27;93.21
66703;BME280;60933;46.398;-63.798;2024-01-30T08:45:52;102050.81;;;-9.28;91.94
66703;BME280;60933;46.398;-63.798;2024-01-30T08:48:20;102035.81;;;-9.28;90.53
66703;BME280;60933;46.398;-63.798;2024-01-30T08:50:50;102031.44;;;-9.30;92.05
66703;BME280;60933;46.398;-63.798;2024-01-30T08:53:18;102039.41;;;-9.24;93.74
66703;BME280;60933;46.398;-63.798;2024-01-30T08:55:46;102050.41;;;-9.22;93.03
66703;BME280;60933;46.398;-63.798;2024-01-30T08:58:15;102054.66;;;-9.21;91.20
66703;BME280;60933;46.398;-63.798;2024-01-30T09:00:45;102046.28;;;-9.22;90.66
66703;BME280;60933;46.398;-63.798;2024-01-30T09:03:13;102058.03;;;-9.20;91.53
66703;BME280;60933;46.398;-63.798;2024-01-30T09:05:41;102056.16;;;-9.23;93.62
66703;BME280;60933;46.398;-63.798;2024-01-30T09:08:09;102051.28;;;-9.22;95.78
66703;BME280;60933;46.398;-63.798;2024-01-30T09:10:37;102052.81;;;-9.24;96.30
66703;BME280;60933;46.398;-63.798;2024-01-30T09:13:06;102059.53;;;-9.23;95.95
66703;BME280;60933;46.398;-63.798;2024-01-30T09:15:33;102069.69;;;-9.21;94.64
66703;BME280;60933;46.398;-63.798;2024-01-30T09:18:02;102057.81;;;-9.24;94.38
66703;BME280;60933;46.398;-63.798;2024-01-30T09:20:30;102069.69;;;-9.21;94.71
66703;BME280;60933;46.398;-63.798;2024-01-30T09:23:01;102065.44;;;-9.22;95.63
66703;BME280;60933;46.398;-63.798;2024-01-30T09:25:29;102063.78;;;-9.22;96.68
66703;BME280;60933;46.398;-63.798;2024-01-30T09:27:57;102065.44;;;-9.22;97.46
66703;BME280;60933;46.398;-63.798;2024-01-30T09:30:25;102069.91;;;-9.18;97.25
66703;BME280;60933;46.398;-63.798;2024-01-30T09:32:53;102071.66;;;-9.17;95.46
66703;BME280;60933;46.398;-63.798;2024-01-30T09:35:21;102069.13;;;-9.17;93.78
66703;BME280;60933;46.398;-63.798;2024-01-30T09:37:49;102065.78;;;-9.17;93.01
66703;BME280;60933;46.398;-63.798;2024-01-30T09:40:17;102067.63;;;-9.15;93.62
66703;BME280;60933;46.398;-63.798;2024-01-30T09:42:50;102077.75;;;-9.13;93.38
66703;BME280;60933;46.398;-63.798;2024-01-30T09:45:19;102078.41;;;-9.16;93.75
66703;BME280;60933;46.398;-63.798;2024-01-30T09:47:47;102074.25;;;-9.15;93.83
66703;BME280;60933;46.398;-63.798;2024-01-30T09:50:16;102071.75;;;-9.15;92.69
66703;BME280;60933;46.398;-63.798;2024-01-30T09:52:44;102085.25;;;-9.13;90.93
66703;BME280;60933;46.398;-63.798;2024-01-30T09:55:13;102078.75;;;-9.11;90.82
66703;BME280;60933;46.398;-63.798;2024-01-30T09:57:42;102083.88;;;-9.10;92.88
66703;BME280;60933;46.398;-63.798;2024-01-30T10:00:11;102082.00;;;-9.12;94.14
66703;BME280;60933;46.398;-63.798;2024-01-30T10:02:39;102096.38;;;-9.10;97.01
66703;BME280;60933;46.398;-63.798;2024-01-30T10:05:08;102087.00;;;-9.12;98.86
66703;BME280;60933;46.398;-63.798;2024-01-30T10:07:36;102090.91;;;-9.16;98.57
66703;BME280;60933;46.398;-63.798;2024-01-30T10:10:05;102095.81;;;-9.17;97.35
66703;BME280;60933;46.398;-63.798;2024-01-30T10:12:34;102097.41;;;-9.18;97.50
66703;BME280;60933;46.398;-63.798;2024-01-30T10:15:02;102106.16;;;-9.13;98.11
66703;BME280;60933;46.398;-63.798;2024-01-30T10:17:30;102098.53;;;-9.14;97.83
66703;BME280;60933;46.398;-63.798;2024-01-30T10:20:00;102105.16;;;-9.15;97.59
66703;BME280;60933;46.398;-63.798;2024-01-30T10:22:32;102118.78;;;-9.11;97.41
66703;BME280;60933;46.398;-63.798;2024-01-30T10:25:00;102121.28;;;-9.11;96.27
66703;BME280;60933;46.398;-63.798;2024-01-30T10:27:32;102128.91;;;-9.10;94.91
66703;BME280;60933;46.398;-63.798;2024-01-30T10:30:00;102120.19;;;-9.15;94.95
66703;BME280;60933;46.398;-63.798;2024-01-30T10:32:28;102129.66;;;-9.11;94.99
66703;BME280;60933;46.398;-63.798;2024-01-30T10:34:56;102128.16;;;-9.09;96.49
66703;BME280;60933;46.398;-63.798;2024-01-30T10:37:25;102133.03;;;-9.10;96.81
66703;BME280;60933;46.398;-63.798;2024-01-30T10:39:56;102143.28;;;-9.07;96.52
66703;BME280;60933;46.398;-63.798;2024-01-30T10:42:31;102146.56;;;-9.08;96.21
66703;BME280;60933;46.398;-63.798;2024-01-30T10:45:07;102149.16;;;-9.07;95.82
66703;BME280;60933;46.398;-63.798;2024-01-30T10:47:36;102151.66;;;-9.07;95.16
66703;BME280;60933;46.398;-63.798;2024-01-30T10:50:05;102151.66;;;-9.07;95.08
66703;BME280;60933;46.398;-63.798;2024-01-30T10:52:36;102159.28;;;-9.05;94.96
66703;BME280;60933;46.398;-63.798;2024-01-30T10:55:05;102165.19;;;-9.04;96.70
66703;BME280;60933;46.398;-63.798;2024-01-30T10:57:36;102170.19;;;-9.04;97.18
66703;BME280;60933;46.398;-63.798;2024-01-30T11:00:08;102174.53;;;-9.02;96.81
66703;BME280;60933;46.398;-63.798;2024-01-30T11:02:43;102184.31;;;-9.05;93.44
66703;BME280;60933;46.398;-63.798;2024-01-30T11:05:13;102181.81;;;-9.05;90.95
66703;BME280;60933;46.398;-63.798;2024-01-30T11:07:43;102179.19;;;-9.07;88.81
66703;BME280;60933;46.398;-63.798;2024-01-30T11:10:12;102178.94;;;-9.10;89.20
66703;BME280;60933;46.398;-63.798;2024-01-30T11:12:43;102180.06;;;-9.06;89.90
66703;BME280;60933;46.398;-63.798;2024-01-30T11:15:15;102197.72;;;-9.04;90.78
66703;BME280;60933;46.398;-63.798;2024-01-30T11:20:21;102204.69;;;-9.00;92.33
66703;BME280;60933;46.398;-63.798;2024-01-30T11:22:53;102210.31;;;-9.03;92.67
66703;BME280;60933;46.398;-63.798;2024-01-30T11:25:23;102203.69;;;-9.02;91.34
66703;BME280;60933;46.398;-63.798;2024-01-30T11:27:52;102221.94;;;-9.03;90.57
66703;BME280;60933;46.398;-63.798;2024-01-30T11:30:27;102229.44;;;-9.03;90.25
66703;BME280;60933;46.398;-63.798;2024-01-30T11:33:00;102220.97;;;-9.05;90.45
66703;BME280;60933;46.398;-63.798;2024-01-30T11:35:35;102225.09;;;-9.06;90.85
66703;BME280;60933;46.398;-63.798;2024-01-30T11:38:04;102242.75;;;-9.04;91.59
66703;BME280;60933;46.398;-63.798;2024-01-30T11:40:33;102242.75;;;-9.04;92.23
66703;BME280;60933;46.398;-63.798;2024-01-30T11:43:03;102242.84;;;-9.03;94.25
66703;BME280;60933;46.398;-63.798;2024-01-30T11:45:33;102241.22;;;-9.02;95.70
66703;BME280;60933;46.398;-63.798;2024-01-30T11:48:01;102244.72;;;-9.00;97.08
66703;BME280;60933;46.398;-63.798;2024-01-30T11:50:33;102242.84;;;-9.03;98.07
66703;BME280;60933;46.398;-63.798;2024-01-30T11:53:02;102257.22;;;-9.00;99.45
66703;BME280;60933;46.398;-63.798;2024-01-30T11:55:30;102253.97;;;-8.99;100.00
66703;BME280;60933;46.398;-63.798;2024-01-30T11:58:01;102254.84;;;-8.99;100.00
66703;BME280;60933;46.398;-63.798;2024-01-30T12:00:30;102254.09;;;-8.98;100.00
66703;BME280;60933;46.398;-63.798;2024-01-30T12:03:03;102241.97;;;-9.03;100.00
66703;BME280;60933;46.398;-63.798;2024-01-30T12:05:32;102264.09;;;-8.98;100.00
66703;BME280;60933;46.398;-63.798;2024-01-30T12:08:00;102275.13;;;-8.96;99.82
66703;BME280;60933;46.398;-63.798;2024-01-30T12:10:29;102277.72;;;-8.94;99.57
66703;BME280;60933;46.398;-63.798;2024-01-30T12:12:58;102281.13;;;-8.94;100.00
66703;BME280;60933;46.398;-63.798;2024-01-30T12:15:26;102299.75;;;-8.90;100.00
66703;BME280;60933;46.398;-63.798;2024-01-30T12:18:04;102294.63;;;-8.92;100.00
66703;BME280;60933;46.398;-63.798;2024-01-30T12:20:34;102309.13;;;-8.87;100.00
66703;BME280;60933;46.398;-63.798;2024-01-30T12:23:02;102312.66;;;-8.85;100.00
66703;BME280;60933;46.398;-63.798;2024-01-30T12:25:30;102305.25;;;-8.84;100.00
66703;BME280;60933;46.398;-63.798;2024-01-30T12:27:59;102322.50;;;-8.77;100.00
66703;BME280;60933;46.398;-63.798;2024-01-30T12:30:27;102325.25;;;-8.73;100.00
66703;BME280;60933;46.398;-63.798;2024-01-30T12:32:56;102311.22;;;-8.71;100.00
66703;BME280;60933;46.398;-63.798;2024-01-30T12:35:25;102327.25;;;-8.69;100.00
66703;BME280;60933;46.398;-63.798;2024-01-30T12:37:55;102328.34;;;-8.66;100.00